Kirsehir, Turkey
Current Conditions -  °F | °C
As of 12:50 AM on Friday 19 Dec 2014 (Local Time) from LTAZ Reporting Station
Overcast Overcast  
Wind Chill: 36°   Ceiling: 4000
Heat Index: 41°   Visibility: 6mi
Dew Point: 39°   Wind: 7mph
Humidity: 93%   Direction: 130°SE
Pressure: 30.09"   Gusts: NA
Location:  39.15°N, 34.16°E
Report Text: LTAZ 182150Z 13006KT 9999 BKN040 OVC090 05/04 Q1019
Loading
Personal Weather Stations






























Interactive Weather Map New forecast layout! Learn more

10-Day Weather Forecast

Advertisements
Track Severe Weather on mobile